sensor_id;sensor_type;location;lat;lon;timestamp;pressure;altitude;pressure_sealevel;temperature;humidity
84779;BME280;75010;50.866;20.620;2024-01-16T00:00:20;969;;;0.6;82
84779;BME280;75010;50.866;20.620;2024-01-16T00:10:12;969;;;0.5;83
84779;BME280;75010;50.866;20.620;2024-01-16T00:20:18;969;;;0.5;83
84779;BME280;75010;50.866;20.620;2024-01-16T00:30:18;969;;;0.5;83
84779;BME280;75010;50.866;20.620;2024-01-16T00:40:20;969;;;0.4;82
84779;BME280;75010;50.866;20.620;2024-01-16T00:50:11;970;;;0.3;79
84779;BME280;75010;50.866;20.620;2024-01-16T01:00:06;970;;;0.3;79
84779;BME280;75010;50.866;20.620;2024-01-16T01:10:03;970;;;0.3;80
84779;BME280;75010;50.866;20.620;2024-01-16T01:20:20;970;;;0.3;77
84779;BME280;75010;50.866;20.620;2024-01-16T01:30:13;970;;;0.2;75
84779;BME280;75010;50.866;20.620;2024-01-16T01:40:21;970;;;0.2;72
84779;BME280;75010;50.866;20.620;2024-01-16T01:50:09;970;;;0.2;72
84779;BME280;75010;50.866;20.620;2024-01-16T02:00:23;970;;;0;71
84779;BME280;75010;50.866;20.620;2024-01-16T02:10:11;970;;;0;71
84779;BME280;75010;50.866;20.620;2024-01-16T02:20:12;970;;;-0.2;69
84779;BME280;75010;50.866;20.620;2024-01-16T02:30:17;970;;;-0.2;69
84779;BME280;75010;50.866;20.620;2024-01-16T02:40:19;971;;;-0.5;70
84779;BME280;75010;50.866;20.620;2024-01-16T02:50:11;971;;;-0.7;71
84779;BME280;75010;50.866;20.620;2024-01-16T03:00:10;971;;;-0.7;71
84779;BME280;75010;50.866;20.620;2024-01-16T03:10:07;971;;;-0.8;71
84779;BME280;75010;50.866;20.620;2024-01-16T03:20:17;971;;;-0.8;71
84779;BME280;75010;50.866;20.620;2024-01-16T03:30:18;971;;;-0.9;71
84779;BME280;75010;50.866;20.620;2024-01-16T03:40:19;971;;;-0.9;71
84779;BME280;75010;50.866;20.620;2024-01-16T03:50:16;971;;;-1.3;70
84779;BME280;75010;50.866;20.620;2024-01-16T04:00:16;971;;;-1.3;70
84779;BME280;75010;50.866;20.620;2024-01-16T04:10:12;972;;;-1.6;72
84779;BME280;75010;50.866;20.620;2024-01-16T04:20:13;972;;;-1.7;72
84779;BME280;75010;50.866;20.620;2024-01-16T04:30:21;972;;;-1.7;72
84779;BME280;75010;50.866;20.620;2024-01-16T04:40:10;972;;;-1.7;72
84779;BME280;75010;50.866;20.620;2024-01-16T04:50:12;972;;;-1.6;71
84779;BME280;75010;50.866;20.620;2024-01-16T05:00:19;973;;;-1.6;72
84779;BME280;75010;50.866;20.620;2024-01-16T05:10:21;973;;;-1.5;70
84779;BME280;75010;50.866;20.620;2024-01-16T05:20:06;973;;;-1.5;70
84779;BME280;75010;50.866;20.620;2024-01-16T05:30:18;973;;;-1.5;70
84779;BME280;75010;50.866;20.620;2024-01-16T05:40:09;973;;;-1.5;70
84779;BME280;75010;50.866;20.620;2024-01-16T05:50:07;973;;;-1.5;70
84779;BME280;75010;50.866;20.620;2024-01-16T06:00:19;973;;;-1.5;70
84779;BME280;75010;50.866;20.620;2024-01-16T06:10:17;973;;;-1.7;70
84779;BME280;75010;50.866;20.620;2024-01-16T06:20:11;973;;;-1.7;71
84779;BME280;75010;50.866;20.620;2024-01-16T06:30:15;973;;;-1.6;70
84779;BME280;75010;50.866;20.620;2024-01-16T06:40:13;974;;;-1.8;70
84779;BME280;75010;50.866;20.620;2024-01-16T06:50:11;974;;;-1.8;71
84779;BME280;75010;50.866;20.620;2024-01-16T07:00:20;974;;;-1.8;71
84779;BME280;75010;50.866;20.620;2024-01-16T07:10:33;974;;;-1.8;71
84779;BME280;75010;50.866;20.620;2024-01-16T07:20:05;975;;;-1.9;72
84779;BME280;75010;50.866;20.620;2024-01-16T07:30:18;975;;;-1.8;72
84779;BME280;75010;50.866;20.620;2024-01-16T07:40:03;975;;;-2;71
84779;BME280;75010;50.866;20.620;2024-01-16T07:50:03;975;;;-2;71
84779;BME280;75010;50.866;20.620;2024-01-16T08:00:19;975;;;-1.4;69
84779;BME280;75010;50.866;20.620;2024-01-16T08:10:13;975;;;-1.4;69
84779;BME280;75010;50.866;20.620;2024-01-16T08:20:20;975;;;-0.5;65
84779;BME280;75010;50.866;20.620;2024-01-16T08:30:14;975;;;-0.5;65
84779;BME280;75010;50.866;20.620;2024-01-16T08:40:04;976;;;0.4;62
84779;BME280;75010;50.866;20.620;2024-01-16T08:50:17;976;;;1.4;57
84779;BME280;75010;50.866;20.620;2024-01-16T09:00:11;976;;;2;56
84779;BME280;75010;50.866;20.620;2024-01-16T09:10:11;976;;;2.3;54
84779;BME280;75010;50.866;20.620;2024-01-16T09:20:20;976;;;2.3;52
84779;BME280;75010;50.866;20.620;2024-01-16T09:30:18;976;;;1.5;54
84779;BME280;75010;50.866;20.620;2024-01-16T09:40:23;976;;;1.5;54
84779;BME280;75010;50.866;20.620;2024-01-16T09:50:24;976;;;2.1;53
84779;BME280;75010;50.866;20.620;2024-01-16T10:00:16;976;;;1.9;53
84779;BME280;75010;50.866;20.620;2024-01-16T10:10:03;976;;;1.5;54
84779;BME280;75010;50.866;20.620;2024-01-16T10:20:11;976;;;1.3;55
84779;BME280;75010;50.866;20.620;2024-01-16T10:30:16;976;;;1.4;55
84779;BME280;75010;50.866;20.620;2024-01-16T10:40:03;976;;;1.4;55
84779;BME280;75010;50.866;20.620;2024-01-16T10:50:10;977;;;1.1;56
84779;BME280;75010;50.866;20.620;2024-01-16T11:00:24;977;;;1;56
84779;BME280;75010;50.866;20.620;2024-01-16T11:10:10;977;;;1;56
84779;BME280;75010;50.866;20.620;2024-01-16T11:20:05;977;;;0.9;56
84779;BME280;75010;50.866;20.620;2024-01-16T11:30:33;977;;;1;56
84779;BME280;75010;50.866;20.620;2024-01-16T11:40:45;977;;;1.5;55
84779;BME280;75010;50.866;20.620;2024-01-16T11:50:31;977;;;1.5;55
84779;BME280;75010;50.866;20.620;2024-01-16T12:00:45;977;;;2;53
84779;BME280;75010;50.866;20.620;2024-01-16T12:10:05;977;;;1.6;54
84779;BME280;75010;50.866;20.620;2024-01-16T12:20:41;977;;;1.6;54
84779;BME280;75010;50.866;20.620;2024-01-16T12:40:10;977;;;1.1;56
84779;BME280;75010;50.866;20.620;2024-01-16T12:50:33;977;;;1.9;54
84779;BME280;75010;50.866;20.620;2024-01-16T13:00:36;977;;;1.9;54
84779;BME280;75010;50.866;20.620;2024-01-16T13:10:33;977;;;2.8;53
84779;BME280;75010;50.866;20.620;2024-01-16T13:20:11;977;;;2.8;53
84779;BME280;75010;50.866;20.620;2024-01-16T13:30:12;978;;;4.6;48
84779;BME280;75010;50.866;20.620;2024-01-16T13:40:23;978;;;4.6;48
84779;BME280;75010;50.866;20.620;2024-01-16T13:50:08;978;;;3.3;50
84779;BME280;75010;50.866;20.620;2024-01-16T14:00:27;978;;;3.3;50
84779;BME280;75010;50.866;20.620;2024-01-16T14:10:14;978;;;2.4;52
84779;BME280;75010;50.866;20.620;2024-01-16T14:20:07;978;;;2.3;53
84779;BME280;75010;50.866;20.620;2024-01-16T14:30:09;978;;;2.3;53
84779;BME280;75010;50.866;20.620;2024-01-16T14:40:33;978;;;1.8;54
84779;BME280;75010;50.866;20.620;2024-01-16T14:50:14;978;;;0.6;58
84779;BME280;75010;50.866;20.620;2024-01-16T15:00:17;978;;;0.6;58
84779;BME280;75010;50.866;20.620;2024-01-16T15:10:11;979;;;-0.2;60
84779;BME280;75010;50.866;20.620;2024-01-16T15:20:15;979;;;-0.7;62
84779;BME280;75010;50.866;20.620;2024-01-16T15:30:33;979;;;-1.2;65
84779;BME280;75010;50.866;20.620;2024-01-16T15:40:16;979;;;-1.7;67
84779;BME280;75010;50.866;20.620;2024-01-16T15:50:12;979;;;-2.8;72
84779;BME280;75010;50.866;20.620;2024-01-16T16:00:24;979;;;-2.8;72
84779;BME280;75010;50.866;20.620;2024-01-16T16:10:19;980;;;-3.2;73
84779;BME280;75010;50.866;20.620;2024-01-16T16:20:11;980;;;-3.6;74
84779;BME280;75010;50.866;20.620;2024-01-16T16:30:04;980;;;-3.9;76
84779;BME280;75010;50.866;20.620;2024-01-16T16:40:11;980;;;-4.2;77
84779;BME280;75010;50.866;20.620;2024-01-16T16:50:19;980;;;-4.3;79
84779;BME280;75010;50.866;20.620;2024-01-16T17:00:15;980;;;-4.4;79
84779;BME280;75010;50.866;20.620;2024-01-16T17:10:32;980;;;-4.4;79
84779;BME280;75010;50.866;20.620;2024-01-16T17:20:21;980;;;-4.7;80
84779;BME280;75010;50.866;20.620;2024-01-16T17:30:03;980;;;-5.2;81
84779;BME280;75010;50.866;20.620;2024-01-16T17:40:16;981;;;-5.5;83
84779;BME280;75010;50.866;20.620;2024-01-16T17:50:13;981;;;-5.9;83
84779;BME280;75010;50.866;20.620;2024-01-16T18:00:24;981;;;-6.5;85
84779;BME280;75010;50.866;20.620;2024-01-16T18:10:10;981;;;-6.5;85
84779;BME280;75010;50.866;20.620;2024-01-16T18:20:34;981;;;-6.7;85
84779;BME280;75010;50.866;20.620;2024-01-16T18:30:19;981;;;-6.7;85
84779;BME280;75010;50.866;20.620;2024-01-16T18:40:10;981;;;-6.7;85
84779;BME280;75010;50.866;20.620;2024-01-16T19:30:17;982;;;-7.6;86
84779;BME280;75010;50.866;20.620;2024-01-16T19:40:25;982;;;-7.7;86
84779;BME280;75010;50.866;20.620;2024-01-16T19:50:34;982;;;-8;86
84779;BME280;75010;50.866;20.620;2024-01-16T20:00:21;982;;;-8;86
84779;BME280;75010;50.866;20.620;2024-01-16T20:10:05;982;;;-8;85
84779;BME280;75010;50.866;20.620;2024-01-16T20:20:20;982;;;-7.8;85
84779;BME280;75010;50.866;20.620;2024-01-16T20:30:18;982;;;-7.8;86
84779;BME280;75010;50.866;20.620;2024-01-16T20:40:07;982;;;-7.5;86
84779;BME280;75010;50.866;20.620;2024-01-16T20:50:06;982;;;-7;87
84779;BME280;75010;50.866;20.620;2024-01-16T21:00:14;982;;;-7;87
84779;BME280;75010;50.866;20.620;2024-01-16T21:10:12;982;;;-6;87
84779;BME280;75010;50.866;20.620;2024-01-16T21:20:12;982;;;-5.7;87
84779;BME280;75010;50.866;20.620;2024-01-16T21:30:15;982;;;-5.6;86
84779;BME280;75010;50.866;20.620;2024-01-16T21:40:19;982;;;-5.6;86
84779;BME280;75010;50.866;20.620;2024-01-16T21:50:08;982;;;-5.3;86
84779;BME280;75010;50.866;20.620;2024-01-16T22:00:17;982;;;-5.3;86
84779;BME280;75010;50.866;20.620;2024-01-16T22:10:08;983;;;-4.8;85
84779;BME280;75010;50.866;20.620;2024-01-16T22:20:07;982;;;-4.6;84
84779;BME280;75010;50.866;20.620;2024-01-16T22:30:17;982;;;-4.3;83
84779;BME280;75010;50.866;20.620;2024-01-16T22:40:03;982;;;-4.3;83
84779;BME280;75010;50.866;20.620;2024-01-16T22:50:07;982;;;-4.3;82
84779;BME280;75010;50.866;20.620;2024-01-16T23:00:22;982;;;-4.3;82
84779;BME280;75010;50.866;20.620;2024-01-16T23:10:16;982;;;-4.4;82
84779;BME280;75010;50.866;20.620;2024-01-16T23:20:03;982;;;-4.4;82
84779;BME280;75010;50.866;20.620;2024-01-16T23:30:22;982;;;-4.5;83
84779;BME280;75010;50.866;20.620;2024-01-16T23:40:19;982;;;-4.5;83
84779;BME280;75010;50.866;20.620;2024-01-16T23:50:20;982;;;-4.5;83
